Time;durP1;ratioP1;P1;durP2;ratioP2;P2;SDS_P1;SDS_P2;PMS_P1;PMS_P2;Temp;Humidity;BMP_temperature;BMP_pressure;BME280_temperature;BME280_humidity;BME280_pressure;Samples;Min_cycle;Max_cycle;Signal;HPM_P1;HPM_P2
2022/10/04 00:00:48;;;;;;;;;;;11.40;99.90;;;;;;5062519;28;19980;-89
2022/10/04 00:03:19;;;;;;;;;;;11.30;99.90;;;;;;5082346;28;19925;-90
2022/10/04 00:05:48;;;;;;;;;;;11.30;99.90;;;;;;5064946;28;19925;-89
2022/10/04 00:08:23;;;;;;;;;;;11.30;99.90;;;;;;5065429;28;19924;-89
2022/10/04 00:10:56;;;;;;;;;;;11.30;99.90;;;;;;5065875;28;19924;-89
2022/10/04 00:13:24;;;;;;;;;;;11.30;99.90;;;;;;5118630;27;19923;-89
2022/10/04 00:15:49;;;;;;;;;;;11.40;99.90;;;;;;5111165;28;19935;-89
2022/10/04 00:18:15;;;;;;;;;;;11.40;99.90;;;;;;5102663;28;19924;-89
2022/10/04 00:20:49;;;;;;;;;;;11.30;99.90;;;;;;5111103;28;19927;-90
2022/10/04 00:23:24;;;;;;;;;;;11.40;99.90;;;;;;5161626;27;19931;-89
2022/10/04 00:25:57;;;;;;;;;;;11.40;99.90;;;;;;5111043;28;19932;-90
2022/10/04 00:28:23;;;;;;;;;;;11.40;99.90;;;;;;5119930;28;19938;-89
2022/10/04 00:31:07;;;;;;;;;;;11.30;99.90;;;;;;5133816;27;19959;-89
2022/10/04 00:33:39;;;;;;;;;;;11.30;99.90;;;;;;5102906;28;20444;-89
2022/10/04 00:36:24;;;;;;;;;;;11.30;99.90;;;;;;5107243;28;20402;-89
2022/10/04 00:39:05;;;;;;;;;;;11.30;99.90;;;;;;5100381;28;19999;-89
2022/10/04 00:41:43;;;;;;;;;;;11.30;99.90;;;;;;5136970;27;20376;-90
2022/10/04 00:44:12;;;;;;;;;;;11.30;99.90;;;;;;5123409;28;19924;-89
2022/10/04 00:46:39;;;;;;;;;;;11.30;99.90;;;;;;5110229;28;19962;-89
2022/10/04 00:49:07;;;;;;;;;;;11.30;99.90;;;;;;5108877;28;19923;-89
2022/10/04 00:51:41;;;;;;;;;;;11.30;99.90;;;;;;5102041;28;19945;-89
2022/10/04 00:54:10;;;;;;;;;;;11.30;99.90;;;;;;5126330;27;20026;-89
2022/10/04 00:56:45;;;;;;;;;;;11.20;99.90;;;;;;5132358;27;19939;-89
2022/10/04 00:59:14;;;;;;;;;;;11.20;99.90;;;;;;5100571;28;19946;-89
2022/10/04 01:01:43;;;;;;;;;;;11.20;99.90;;;;;;5137333;27;19924;-89
2022/10/04 01:04:14;;;;;;;;;;;11.10;99.90;;;;;;5103423;28;19923;-90
2022/10/04 01:06:40;;;;;;;;;;;11.10;99.90;;;;;;5137963;27;19931;-89
2022/10/04 01:09:08;;;;;;;;;;;11.10;99.90;;;;;;5110935;28;19938;-89
2022/10/04 01:11:36;;;;;;;;;;;11.00;99.90;;;;;;5101206;28;19924;-89
2022/10/04 01:14:10;;;;;;;;;;;11.00;99.90;;;;;;5102261;28;19945;-89
2022/10/04 01:16:36;;;;;;;;;;;11.00;99.90;;;;;;5135350;27;19924;-89
2022/10/04 01:19:20;;;;;;;;;;;11.00;99.90;;;;;;5117156;28;19924;-89
2022/10/04 01:21:55;;;;;;;;;;;10.90;99.90;;;;;;5102649;28;20379;-89
2022/10/04 01:24:21;;;;;;;;;;;10.00;99.90;;;;;;5113165;28;20123;-90
2022/10/04 01:26:47;;;;;;;;;;;10.90;99.90;;;;;;5101010;28;19973;-89
2022/10/04 01:29:17;;;;;;;;;;;11.00;99.90;;;;;;5135784;27;19923;-90
2022/10/04 01:31:47;;;;;;;;;;;11.00;99.90;;;;;;5098247;28;19924;-89
2022/10/04 01:34:17;;;;;;;;;;;11.00;99.90;;;;;;5102906;28;19924;-89
2022/10/04 01:36:44;;;;;;;;;;;11.00;99.90;;;;;;5100352;28;19946;-89
2022/10/04 01:39:11;;;;;;;;;;;11.00;99.90;;;;;;5098666;28;19928;-89
2022/10/04 01:41:46;;;;;;;;;;;11.50;99.90;;;;;;5101003;28;19928;-89
2022/10/04 01:44:18;;;;;;;;;;;11.00;99.90;;;;;;5134195;28;19936;-89
2022/10/04 01:46:45;;;;;;;;;;;10.90;99.90;;;;;;5153433;27;19924;-89
2022/10/04 01:49:12;;;;;;;;;;;11.00;99.90;;;;;;5085172;28;20015;-88
2022/10/04 01:51:45;;;;;;;;;;;10.90;99.90;;;;;;5106908;28;19924;-89
2022/10/04 01:54:14;;;;;;;;;;;10.90;99.90;;;;;;5133259;28;19930;-89
2022/10/04 01:56:46;;;;;;;;;;;10.90;99.90;;;;;;5112151;28;19928;-89
2022/10/04 01:59:27;;;;;;;;;;;10.90;99.90;;;;;;5113787;28;19924;-90
2022/10/04 02:02:06;;;;;;;;;;;10.90;99.90;;;;;;5128653;28;19938;-88
2022/10/04 02:04:33;;;;;;;;;;;10.90;99.90;;;;;;5119632;28;19924;-89
2022/10/04 02:07:00;;;;;;;;;;;10.90;99.90;;;;;;5103498;28;19935;-90
2022/10/04 02:09:28;;;;;;;;;;;10.10;99.90;;;;;;5098668;28;19928;-88
2022/10/04 02:11:57;;;;;;;;;;;10.80;99.90;;;;;;5122256;28;20308;-89
2022/10/04 02:14:25;;;;;;;;;;;10.80;99.90;;;;;;5153769;27;19955;-88
2022/10/04 02:16:52;;;;;;;;;;;10.80;99.90;;;;;;5101340;28;19934;-89
2022/10/04 02:19:27;;;;;;;;;;;10.80;99.90;;;;;;5119571;28;19924;-89
2022/10/04 02:21:54;;;;;;;;;;;10.80;99.90;;;;;;5098367;28;19924;-90
2022/10/04 02:24:20;;;;;;;;;;;10.70;99.90;;;;;;5087053;28;19969;-89
2022/10/04 02:26:50;;;;;;;;;;;10.70;99.90;;;;;;5110337;28;20022;-88
2022/10/04 02:29:16;;;;;;;;;;;10.70;99.90;;;;;;5121990;28;19935;-89
2022/10/04 02:34:26;;;;;;;;;;;10.60;99.90;;;;;;5129264;27;20517;-89
2022/10/04 02:36:52;;;;;;;;;;;10.60;99.90;;;;;;5103213;28;19930;-90
2022/10/04 02:39:23;;;;;;;;;;;10.60;99.90;;;;;;5104674;28;19924;-89
2022/10/04 02:42:15;;;;;;;;;;;10.60;99.90;;;;;;5133432;27;19931;-89
2022/10/04 02:44:44;;;;;;;;;;;10.50;99.90;;;;;;5114743;28;19938;-89
2022/10/04 02:47:15;;;;;;;;;;;10.60;99.90;;;;;;5155884;27;20450;-89
2022/10/04 02:49:51;;;;;;;;;;;10.60;99.90;;;;;;5158203;27;20462;-88
2022/10/04 02:52:17;;;;;;;;;;;10.50;99.90;;;;;;5151003;27;19924;-89
2022/10/04 02:54:43;;;;;;;;;;;10.50;99.90;;;;;;5124162;28;20287;-89
2022/10/04 02:57:14;;;;;;;;;;;10.50;99.90;;;;;;5132846;27;21214;-89
2022/10/04 02:59:39;;;;;;;;;;;10.50;99.90;;;;;;5103396;28;20424;-89
2022/10/04 03:02:19;;;;;;;;;;;10.50;99.90;;;;;;5136912;27;19924;-90
2022/10/04 03:04:45;;;;;;;;;;;10.50;99.90;;;;;;5140901;27;19934;-89
2022/10/04 03:07:10;;;;;;;;;;;10.50;99.90;;;;;;5117131;28;19924;-89
2022/10/04 03:09:36;;;;;;;;;;;10.50;99.90;;;;;;5113445;28;19967;-89
2022/10/04 03:12:03;;;;;;;;;;;10.40;99.90;;;;;;5102861;28;19924;-88
2022/10/04 03:14:30;;;;;;;;;;;10.50;99.90;;;;;;5119520;28;19976;-89
2022/10/04 03:16:59;;;;;;;;;;;10.50;99.90;;;;;;5137934;27;19934;-89
2022/10/04 03:19:26;;;;;;;;;;;10.50;99.90;;;;;;5122684;28;20371;-89
2022/10/04 03:21:54;;;;;;;;;;;10.50;99.90;;;;;;5135152;27;19969;-89
2022/10/04 03:24:22;;;;;;;;;;;10.50;99.90;;;;;;5106360;28;20548;-88
2022/10/04 03:26:49;;;;;;;;;;;10.50;99.90;;;;;;5128992;27;19924;-89
2022/10/04 03:29:16;;;;;;;;;;;10.50;99.90;;;;;;5135199;27;19924;-89
2022/10/04 03:31:46;;;;;;;;;;;10.50;99.90;;;;;;5131536;27;19946;-89
2022/10/04 03:34:13;;;;;;;;;;;10.50;99.90;;;;;;5095167;28;19924;-89
2022/10/04 03:36:39;;;;;;;;;;;10.40;99.90;;;;;;5129191;27;19930;-90
2022/10/04 03:39:06;;;;;;;;;;;10.40;99.90;;;;;;5132572;27;19972;-90
2022/10/04 03:41:33;;;;;;;;;;;10.40;99.90;;;;;;5122831;28;20295;-89
2022/10/04 03:43:59;;;;;;;;;;;10.40;99.90;;;;;;5131845;27;19929;-89
2022/10/04 03:46:27;;;;;;;;;;;10.40;99.90;;;;;;5087294;28;20022;-89
2022/10/04 03:48:53;;;;;;;;;;;10.30;99.90;;;;;;5085951;28;19924;-89
2022/10/04 03:51:20;;;;;;;;;;;10.30;99.90;;;;;;5120506;28;19977;-89
2022/10/04 03:53:48;;;;;;;;;;;10.30;99.90;;;;;;5128313;27;19951;-89
2022/10/04 03:56:40;;;;;;;;;;;10.30;99.90;;;;;;5099444;28;19924;-88
2022/10/04 03:59:06;;;;;;;;;;;10.30;99.90;;;;;;5119502;28;20006;-87
2022/10/04 04:01:34;;;;;;;;;;;10.20;99.90;;;;;;5135573;27;19945;-89
2022/10/04 04:04:00;;;;;;;;;;;10.20;99.90;;;;;;5104885;28;19970;-89
2022/10/04 04:06:30;;;;;;;;;;;10.20;99.90;;;;;;5121809;28;19935;-89
2022/10/04 04:08:55;;;;;;;;;;;10.20;99.90;;;;;;5123609;27;19923;-88
2022/10/04 04:11:25;;;;;;;;;;;10.20;99.90;;;;;;5109130;28;19924;-89
2022/10/04 04:13:59;;;;;;;;;;;10.10;99.90;;;;;;5107115;28;19923;-89
2022/10/04 04:16:26;;;;;;;;;;;10.10;99.90;;;;;;5096129;28;19924;-89
2022/10/04 04:18:52;;;;;;;;;;;10.10;99.90;;;;;;5129866;27;19924;-89
2022/10/04 04:21:18;;;;;;;;;;;10.10;99.90;;;;;;5093425;28;19923;-90
2022/10/04 04:23:49;;;;;;;;;;;10.10;99.90;;;;;;5121872;28;20256;-88
2022/10/04 04:26:34;;;;;;;;;;;10.00;99.90;;;;;;5103190;28;19935;-89
2022/10/04 04:29:00;;;;;;;;;;;10.00;99.90;;;;;;5108160;28;19924;-89
2022/10/04 04:31:32;;;;;;;;;;;10.00;99.90;;;;;;5098130;28;20144;-89
2022/10/04 04:33:59;;;;;;;;;;;10.00;99.90;;;;;;5104481;28;19924;-89
2022/10/04 04:36:26;;;;;;;;;;;10.00;99.90;;;;;;5103499;28;19923;-89
2022/10/04 04:41:50;;;;;;;;;;;9.90;99.90;;;;;;5061070;28;20378;-89
2022/10/04 04:44:16;;;;;;;;;;;9.90;99.90;;;;;;5100115;28;19928;-90
2022/10/04 04:46:43;;;;;;;;;;;9.90;99.90;;;;;;5082738;28;20313;-89
2022/10/04 04:49:09;;;;;;;;;;;9.80;99.90;;;;;;5135320;27;19927;-89
2022/10/04 04:51:35;;;;;;;;;;;9.90;99.90;;;;;;5114424;28;20396;-89
2022/10/04 04:54:02;;;;;;;;;;;9.80;99.90;;;;;;5112689;28;19924;-88
2022/10/04 04:56:29;;;;;;;;;;;9.80;99.90;;;;;;5126723;27;19924;-88
2022/10/04 04:58:57;;;;;;;;;;;9.80;99.90;;;;;;5122177;28;19923;-88
2022/10/04 05:01:25;;;;;;;;;;;9.80;99.90;;;;;;5118529;28;19923;-88
2022/10/04 05:04:01;;;;;;;;;;;9.80;99.90;;;;;;5121401;28;19931;-88
2022/10/04 05:06:27;;;;;;;;;;;9.80;99.90;;;;;;5103418;28;19973;-89
2022/10/04 05:08:53;;;;;;;;;;;9.80;99.90;;;;;;5119625;28;19931;-89
2022/10/04 05:11:20;;;;;;;;;;;9.80;99.90;;;;;;5085096;28;19924;-89
2022/10/04 05:13:54;;;;;;;;;;;9.80;99.90;;;;;;5100761;28;19934;-88
2022/10/04 05:16:25;;;;;;;;;;;9.80;99.90;;;;;;5126881;27;19955;-88
2022/10/04 05:19:14;;;;;;;;;;;9.70;99.90;;;;;;5105485;28;19939;-88
2022/10/04 05:21:42;;;;;;;;;;;9.70;99.90;;;;;;5108312;28;19920;-89
2022/10/04 05:24:13;;;;;;;;;;;9.60;99.90;;;;;;5140309;27;19924;-89
2022/10/04 05:26:40;;;;;;;;;;;9.60;99.90;;;;;;5098361;28;19932;-89
2022/10/04 05:29:08;;;;;;;;;;;9.60;99.90;;;;;;5103837;28;20446;-89
2022/10/04 05:31:44;;;;;;;;;;;9.60;99.90;;;;;;5129203;27;19931;-89
2022/10/04 05:34:16;;;;;;;;;;;9.60;99.90;;;;;;5126056;27;19930;-89
2022/10/04 05:36:51;;;;;;;;;;;9.60;99.90;;;;;;5102087;28;19982;-88
2022/10/04 05:39:25;;;;;;;;;;;9.50;99.90;;;;;;5114898;28;19979;-88
2022/10/04 05:42:30;;;;;;;;;;;9.50;99.90;;;;;;5100248;28;19924;-89
2022/10/04 05:44:56;;;;;;;;;;;9.40;99.90;;;;;;5020833;28;20495;-89
2022/10/04 05:47:26;;;;;;;;;;;9.40;99.90;;;;;;5004116;28;19932;-89
2022/10/04 05:49:54;;;;;;;;;;;9.40;99.90;;;;;;5068047;28;20306;-88
2022/10/04 05:52:32;;;;;;;;;;;9.30;99.90;;;;;;5116853;28;19963;-89
2022/10/04 05:55:16;;;;;;;;;;;9.30;99.90;;;;;;5103909;28;19923;-89
2022/10/04 05:57:42;;;;;;;;;;;9.30;99.90;;;;;;5128680;28;19924;-89
2022/10/04 06:00:13;;;;;;;;;;;9.30;99.90;;;;;;5102018;28;19930;-89
2022/10/04 06:02:38;;;;;;;;;;;9.30;99.90;;;;;;5120426;28;19998;-88
2022/10/04 06:05:08;;;;;;;;;;;9.30;99.90;;;;;;5099235;28;20011;-89
2022/10/04 06:07:39;;;;;;;;;;;9.20;99.90;;;;;;5100257;28;19924;-88
2022/10/04 06:10:14;;;;;;;;;;;9.20;99.90;;;;;;5134880;28;20309;-87
2022/10/04 06:12:41;;;;;;;;;;;9.20;99.90;;;;;;5129052;28;19938;-86
2022/10/04 06:15:42;;;;;;;;;;;9.20;99.90;;;;;;5101121;28;19924;-87
2022/10/04 06:18:10;;;;;;;;;;;9.20;99.90;;;;;;5072474;28;19924;-88
2022/10/04 06:20:53;;;;;;;;;;;9.30;99.90;;;;;;5150576;27;19927;-87
2022/10/04 06:23:20;;;;;;;;;;;9.30;99.90;;;;;;5121527;28;20426;-88
2022/10/04 06:25:51;;;;;;;;;;;9.30;99.90;;;;;;5158605;27;19931;-87
2022/10/04 06:28:33;;;;;;;;;;;9.30;99.90;;;;;;5154333;27;19924;-88
2022/10/04 06:31:11;;;;;;;;;;;9.30;99.90;;;;;;5115540;28;20326;-86
2022/10/04 06:33:45;;;;;;;;;;;9.40;99.90;;;;;;5146612;27;21881;-87
2022/10/04 06:36:25;;;;;;;;;;;9.40;99.90;;;;;;5134554;27;19928;-88
2022/10/04 06:38:54;;;;;;;;;;;9.50;99.90;;;;;;5104390;28;19998;-88
2022/10/04 06:41:22;;;;;;;;;;;9.50;99.90;;;;;;5136919;27;19955;-88
2022/10/04 06:44:03;;;;;;;;;;;9.60;99.90;;;;;;5103024;27;19923;-89
2022/10/04 06:46:29;;;;;;;;;;;9.60;99.90;;;;;;5111736;28;19924;-87
2022/10/04 06:49:08;;;;;;;;;;;9.70;99.90;;;;;;5116604;28;20275;-87
2022/10/04 06:51:48;;;;;;;;;;;9.70;99.90;;;;;;5135946;27;20002;-88
2022/10/04 06:54:33;;;;;;;;;;;9.80;99.90;;;;;;5153068;27;19931;-87
2022/10/04 06:57:02;;;;;;;;;;;9.80;99.90;;;;;;5131159;27;19928;-87
2022/10/04 06:59:35;;;;;;;;;;;10.00;99.90;;;;;;5118704;28;20379;-87
2022/10/04 07:02:04;;;;;;;;;;;10.00;99.90;;;;;;5099415;28;19931;-86
2022/10/04 07:04:49;;;;;;;;;;;10.10;99.90;;;;;;5139564;27;20097;-87
2022/10/04 07:07:25;;;;;;;;;;;10.10;99.90;;;;;;5115238;28;20000;-87
2022/10/04 07:10:11;;;;;;;;;;;10.20;99.90;;;;;;5134665;27;19924;-87
2022/10/04 07:12:39;;;;;;;;;;;10.30;99.90;;;;;;5102665;28;19924;-88
2022/10/04 07:15:14;;;;;;;;;;;10.30;99.90;;;;;;5123656;27;19928;-86
2022/10/04 07:17:42;;;;;;;;;;;10.30;99.90;;;;;;5120129;28;19924;-88
2022/10/04 07:20:20;;;;;;;;;;;10.40;99.90;;;;;;5103400;28;19931;-87
2022/10/04 07:22:53;;;;;;;;;;;10.40;99.90;;;;;;5120784;28;19934;-88
2022/10/04 07:25:29;;;;;;;;;;;10.50;99.90;;;;;;5107292;28;19934;-88
2022/10/04 07:31:02;;;;;;;;;;;10.60;99.90;;;;;;5144295;27;19942;-88
2022/10/04 07:33:34;;;;;;;;;;;10.60;99.90;;;;;;5096667;28;19928;-87
2022/10/04 07:36:05;;;;;;;;;;;10.70;99.90;;;;;;5113913;27;19939;-89
2022/10/04 07:38:32;;;;;;;;;;;10.80;99.90;;;;;;5116914;28;19926;-89
2022/10/04 07:41:08;;;;;;;;;;;10.90;99.90;;;;;;5119859;28;20068;-90
2022/10/04 07:43:49;;;;;;;;;;;11.00;99.90;;;;;;5138128;27;19927;-88
2022/10/04 07:46:25;;;;;;;;;;;11.10;99.90;;;;;;5136334;27;19946;-89
2022/10/04 07:48:51;;;;;;;;;;;11.30;99.90;;;;;;5136639;27;19947;-90
2022/10/04 07:51:29;;;;;;;;;;;11.50;99.90;;;;;;5101778;28;19923;-87
2022/10/04 07:53:56;;;;;;;;;;;11.60;99.90;;;;;;5098451;28;19938;-87
2022/10/04 07:56:25;;;;;;;;;;;11.70;99.90;;;;;;5104124;28;20382;-89
2022/10/04 07:59:03;;;;;;;;;;;11.80;99.90;;;;;;5100321;28;19930;-88
2022/10/04 08:01:42;;;;;;;;;;;11.90;99.90;;;;;;5132222;27;19924;-89
2022/10/04 08:04:28;;;;;;;;;;;11.90;99.90;;;;;;5141954;27;19930;-88
2022/10/04 08:06:59;;;;;;;;;;;12.00;99.90;;;;;;5099982;28;19923;-88
2022/10/04 08:09:24;;;;;;;;;;;12.00;99.90;;;;;;5130515;27;19924;-88
2022/10/04 08:12:00;;;;;;;;;;;12.00;99.90;;;;;;5100162;28;19984;-89
2022/10/04 08:14:37;;;;;;;;;;;11.90;99.90;;;;;;5136445;27;20030;-89
2022/10/04 08:17:10;;;;;;;;;;;11.90;99.90;;;;;;5103318;28;19923;-88
2022/10/04 08:19:51;;;;;;;;;;;11.80;99.90;;;;;;5135706;27;20057;-88
2022/10/04 08:22:17;;;;;;;;;;;11.80;99.90;;;;;;5095702;28;19971;-90
2022/10/04 08:25:12;;;;;;;;;;;11.80;99.90;;;;;;5111495;28;20033;-89
2022/10/04 08:29:41;;;;;;;;;;;11.80;99.90;;;;;;5039336;28;19941;-90
2022/10/04 08:30:51;;;;;;;;;;;11.80;99.90;;;;;;5117506;28;20009;-88
2022/10/04 08:33:29;;;;;;;;;;;12.20;99.90;;;;;;5069131;28;19924;-88
2022/10/04 08:36:03;;;;;;;;;;;11.90;99.90;;;;;;5095832;28;19930;-88
2022/10/04 08:38:41;;;;;;;;;;;12.00;99.90;;;;;;5103069;28;19924;-89
2022/10/04 08:41:09;;;;;;;;;;;12.10;99.90;;;;;;5100380;28;19947;-88
2022/10/04 08:43:38;;;;;;;;;;;12.20;99.90;;;;;;5121479;27;19919;-88
2022/10/04 08:46:24;;;;;;;;;;;12.30;99.90;;;;;;5106508;28;19987;-88
2022/10/04 08:48:54;;;;;;;;;;;12.40;99.90;;;;;;5109674;28;19963;-88
2022/10/04 08:51:39;;;;;;;;;;;12.50;99.90;;;;;;5103405;28;19998;-88
2022/10/04 08:54:14;;;;;;;;;;;12.60;99.90;;;;;;5115166;28;19995;-88
2022/10/04 08:56:48;;;;;;;;;;;12.70;99.90;;;;;;5127309;27;19946;-88
2022/10/04 08:59:20;;;;;;;;;;;12.80;99.90;;;;;;5132261;27;19946;-88
2022/10/04 09:01:55;;;;;;;;;;;12.90;99.90;;;;;;5130765;27;20291;-87
2022/10/04 09:04:39;;;;;;;;;;;12.90;99.90;;;;;;5132127;27;19931;-87
2022/10/04 09:07:24;;;;;;;;;;;12.90;99.90;;;;;;5134486;27;19923;-88
2022/10/04 09:09:55;;;;;;;;;;;13.00;99.90;;;;;;5146214;27;19924;-87
2022/10/04 09:12:36;;;;;;;;;;;13.00;99.90;;;;;;5132673;27;20018;-87
2022/10/04 09:15:03;;;;;;;;;;;13.20;99.90;;;;;;5108833;28;20197;-88
2022/10/04 09:17:48;;;;;;;;;;;13.20;99.90;;;;;;5118369;28;19923;-89
2022/10/04 09:20:33;;;;;;;;;;;13.20;99.90;;;;;;5131146;27;19931;-89
2022/10/04 09:23:21;;;;;;;;;;;13.30;99.90;;;;;;5131816;27;20419;-89
2022/10/04 09:26:05;;;;;;;;;;;13.40;99.90;;;;;;5140709;27;19932;-89
2022/10/04 09:28:37;;;;;;;;;;;13.50;99.90;;;;;;5135518;27;19930;-89
2022/10/04 09:31:35;;;;;;;;;;;13.60;99.90;;;;;;5111363;28;19924;-88
2022/10/04 09:34:21;;;;;;;;;;;13.70;99.90;;;;;;5078280;28;20056;-88
2022/10/04 09:37:05;;;;;;;;;;;13.70;99.90;;;;;;5109385;28;19928;-89
2022/10/04 09:39:34;;;;;;;;;;;13.80;99.90;;;;;;5128572;27;19924;-89
2022/10/04 09:42:12;;;;;;;;;;;13.90;99.90;;;;;;5094483;28;19924;-89
2022/10/04 09:44:45;;;;;;;;;;;14.00;99.90;;;;;;5126427;27;19924;-88
2022/10/04 09:47:36;;;;;;;;;;;14.10;99.90;;;;;;5134740;27;19931;-89
2022/10/04 09:50:24;;;;;;;;;;;14.10;99.90;;;;;;5104106;28;19920;-89
2022/10/04 09:53:13;;;;;;;;;;;14.20;99.90;;;;;;5126809;28;19926;-89
2022/10/04 09:55:40;;;;;;;;;;;14.30;99.90;;;;;;5089257;28;19959;-89
2022/10/04 09:58:28;;;;;;;;;;;14.40;99.90;;;;;;5092448;28;19923;-90
2022/10/04 10:01:07;;;;;;;;;;;14.50;99.90;;;;;;5114692;28;19924;-89
2022/10/04 10:03:52;;;;;;;;;;;14.50;99.90;;;;;;5126035;27;20338;-90
2022/10/04 10:06:21;;;;;;;;;;;14.60;99.90;;;;;;5126496;28;19924;-89
2022/10/04 10:08:59;;;;;;;;;;;14.60;99.90;;;;;;5115880;28;19959;-89
2022/10/04 10:14:43;;;;;;;;;;;14.60;99.90;;;;;;5112489;28;19980;-89
2022/10/04 10:17:35;;;;;;;;;;;14.70;99.90;;;;;;5144129;27;19928;-89
2022/10/04 10:20:19;;;;;;;;;;;14.80;99.90;;;;;;5099662;28;19924;-89
2022/10/04 10:23:06;;;;;;;;;;;14.80;99.90;;;;;;5126773;28;19924;-88
2022/10/04 10:25:32;;;;;;;;;;;14.90;99.90;;;;;;5128303;28;19967;-89
2022/10/04 10:28:28;;;;;;;;;;;15.00;99.90;;;;;;5117517;22;19955;-89
2022/10/04 10:34:12;;;;;;;;;;;15.20;99.90;;;;;;5047539;28;19921;-88
2022/10/04 10:37:21;;;;;;;;;;;15.30;99.90;;;;;;5066216;28;19947;-88
2022/10/04 10:39:55;;;;;;;;;;;15.50;99.90;;;;;;5031627;28;20036;-88
2022/10/04 10:42:45;;;;;;;;;;;15.60;99.90;;;;;;5061494;28;19967;-89
2022/10/04 10:45:29;;;;;;;;;;;15.70;99.90;;;;;;5058732;28;19994;-88
2022/10/04 10:48:16;;;;;;;;;;;15.70;99.90;;;;;;5053746;28;19925;-92
2022/10/04 10:51:33;;;;;;;;;;;15.80;99.90;;;;;;5045527;28;20004;-89
2022/10/04 10:54:24;;;;;;;;;;;15.90;99.90;;;;;;5049994;28;19979;-89
2022/10/04 11:13:16;;;;;;;;;;;16.40;99.90;;;;;;5049476;28;19921;-88
2022/10/04 11:15:42;;;;;;;;;;;16.50;99.90;;;;;;5052834;28;19948;-88
2022/10/04 11:18:11;;;;;;;;;;;16.70;99.90;;;;;;5039999;28;19925;-88
2022/10/04 11:20:47;;;;;;;;;;;16.70;99.90;;;;;;5042065;28;19928;-92
2022/10/04 11:23:16;;;;;;;;;;;16.80;99.90;;;;;;5038109;28;19936;-88
2022/10/04 11:25:48;;;;;;;;;;;16.80;99.90;;;;;;5035968;28;19921;-87
2022/10/04 11:31:59;;;;;;;;;;;16.90;99.90;;;;;;5035939;28;19919;-89
2022/10/04 11:34:40;;;;;;;;;;;17.00;99.90;;;;;;5034821;28;19925;-87
2022/10/04 11:37:15;;;;;;;;;;;17.00;99.90;;;;;;5034708;28;19932;-87
2022/10/04 11:39:59;;;;;;;;;;;17.00;99.90;;;;;;5034890;28;19921;-88
2022/10/04 11:42:34;;;;;;;;;;;17.00;99.90;;;;;;5069057;28;20026;-88
2022/10/04 11:45:18;;;;;;;;;;;16.90;99.90;;;;;;5034942;28;19928;-90
2022/10/04 11:48:08;;;;;;;;;;;16.80;99.90;;;;;;5075804;28;19928;-89
2022/10/04 11:50:53;;;;;;;;;;;16.80;99.90;;;;;;5045253;28;19947;-87
2022/10/04 11:53:38;;;;;;;;;;;16.90;99.90;;;;;;5044523;28;19921;-87
2022/10/04 11:56:10;;;;;;;;;;;16.90;99.90;;;;;;5076788;28;20311;-87
2022/10/04 11:58:35;;;;;;;;;;;16.60;99.90;;;;;;5037583;28;20246;-88
2022/10/04 12:01:04;;;;;;;;;;;17.00;99.90;;;;;;5035831;28;19932;-88
2022/10/04 12:03:36;;;;;;;;;;;17.00;99.90;;;;;;5035965;28;20281;-87
2022/10/04 12:06:06;;;;;;;;;;;17.10;99.90;;;;;;5035032;28;20326;-88
2022/10/04 12:08:40;;;;;;;;;;;17.10;99.90;;;;;;5035399;28;20023;-89
2022/10/04 12:11:05;;;;;;;;;;;17.10;99.90;;;;;;5034526;28;19962;-88
2022/10/04 12:13:31;;;;;;;;;;;17.10;99.90;;;;;;5034761;28;19925;-88
2022/10/04 12:16:15;;;;;;;;;;;17.20;99.90;;;;;;5035430;28;19929;-91
2022/10/04 12:18:49;;;;;;;;;;;17.30;99.90;;;;;;5068695;28;20361;-90
2022/10/04 12:21:38;;;;;;;;;;;17.30;99.90;;;;;;5035590;28;19925;-91
2022/10/04 12:24:04;;;;;;;;;;;17.40;99.90;;;;;;5008716;28;20386;-88
2022/10/04 12:26:48;;;;;;;;;;;17.50;99.90;;;;;;5034493;28;19941;-89
2022/10/04 12:29:20;;;;;;;;;;;17.50;99.90;;;;;;5067603;28;20020;-89
2022/10/04 12:31:49;;;;;;;;;;;17.50;99.90;;;;;;5034369;28;19921;-89
2022/10/04 12:34:24;;;;;;;;;;;17.50;99.90;;;;;;5035804;28;19928;-87
2022/10/04 12:36:56;;;;;;;;;;;17.60;99.90;;;;;;5035423;28;19928;-87
2022/10/04 12:39:22;;;;;;;;;;;17.80;99.90;;;;;;5034948;28;19921;-89
2022/10/04 12:41:54;;;;;;;;;;;17.90;99.90;;;;;;5067226;28;19921;-90
2022/10/04 12:44:39;;;;;;;;;;;18.00;99.90;;;;;;5034777;28;19979;-88
2022/10/04 12:47:05;;;;;;;;;;;18.00;99.90;;;;;;5034580;28;19991;-88
2022/10/04 12:49:39;;;;;;;;;;;18.00;99.90;;;;;;5033848;28;19921;-90
2022/10/04 12:52:15;;;;;;;;;;;18.00;99.90;;;;;;5033643;28;19932;-88
2022/10/04 12:54:42;;;;;;;;;;;18.00;99.90;;;;;;5033575;28;19925;-89
2022/10/04 12:57:14;;;;;;;;;;;18.10;99.90;;;;;;5033478;28;19930;-89
2022/10/04 12:59:46;;;;;;;;;;;18.10;99.90;;;;;;5033380;28;20028;-89
2022/10/04 13:02:24;;;;;;;;;;;18.20;99.90;;;;;;5049574;28;19971;-88
2022/10/04 13:04:54;;;;;;;;;;;18.30;99.90;;;;;;5033500;28;20426;-90
2022/10/04 13:07:40;;;;;;;;;;;18.30;99.90;;;;;;5034086;28;19924;-89
2022/10/04 13:10:14;;;;;;;;;;;18.30;99.90;;;;;;5022621;28;19928;-89
2022/10/04 13:12:59;;;;;;;;;;;18.10;99.90;;;;;;5033092;28;19928;-89
2022/10/04 13:15:33;;;;;;;;;;;18.10;99.90;;;;;;5066408;28;20254;-90
2022/10/04 13:18:12;;;;;;;;;;;18.00;99.90;;;;;;5066675;28;20273;-88
2022/10/04 13:20:43;;;;;;;;;;;18.00;99.90;;;;;;5049125;28;19921;-88
2022/10/04 13:23:16;;;;;;;;;;;18.00;99.90;;;;;;5033258;28;19928;-89
2022/10/04 13:25:44;;;;;;;;;;;18.00;99.90;;;;;;5032901;28;19921;-88
2022/10/04 13:28:19;;;;;;;;;;;18.00;99.90;;;;;;5066693;28;19921;-87
2022/10/04 13:30:51;;;;;;;;;;;18.10;99.90;;;;;;5034039;28;19937;-90
2022/10/04 13:33:25;;;;;;;;;;;18.60;99.90;;;;;;5032834;28;19921;-90
2022/10/04 13:36:05;;;;;;;;;;;18.20;99.90;;;;;;5033273;28;19921;-90
2022/10/04 13:38:31;;;;;;;;;;;18.20;99.90;;;;;;5033068;28;19965;-88
2022/10/04 13:40:56;;;;;;;;;;;18.20;99.90;;;;;;5033110;28;19968;-93
2022/10/04 13:43:37;;;;;;;;;;;18.20;99.90;;;;;;5033345;28;19925;-92
2022/10/04 13:46:06;;;;;;;;;;;18.20;99.90;;;;;;5033513;28;19928;-91
2022/10/04 13:48:41;;;;;;;;;;;18.00;99.90;;;;;;5033016;28;20234;-91
2022/10/04 13:51:16;;;;;;;;;;;17.90;99.90;;;;;;5032966;28;19992;-91
2022/10/04 13:57:20;;;;;;;;;;;17.60;99.90;;;;;;5033382;28;19928;-90
2022/10/04 13:59:52;;;;;;;;;;;17.60;99.90;;;;;;4995590;28;20012;-88
2022/10/04 14:02:24;;;;;;;;;;;17.70;99.90;;;;;;5008901;28;20244;-88
2022/10/04 14:05:09;;;;;;;;;;;17.70;99.90;;;;;;5033422;28;19957;-88
2022/10/04 14:07:50;;;;;;;;;;;17.70;99.90;;;;;;5066346;28;19925;-92
2022/10/04 14:10:16;;;;;;;;;;;17.80;99.90;;;;;;5041491;28;19969;-93
2022/10/04 14:12:47;;;;;;;;;;;17.80;99.90;;;;;;5056629;28;19913;-89
2022/10/04 14:15:23;;;;;;;;;;;17.80;99.90;;;;;;5056755;28;19913;-89
2022/10/04 14:18:08;;;;;;;;;;;17.80;99.90;;;;;;5089943;28;20990;-87
2022/10/04 14:20:49;;;;;;;;;;;17.70;99.90;;;;;;5054290;28;19947;-90
2022/10/04 14:23:34;;;;;;;;;;;17.60;99.90;;;;;;5054857;28;19925;-87
2022/10/04 14:26:12;;;;;;;;;;;17.50;99.90;;;;;;5052009;28;19913;-91
2022/10/04 14:28:57;;;;;;;;;;;17.40;99.90;;;;;;5070198;28;19925;-87
2022/10/04 14:31:34;;;;;;;;;;;17.30;99.90;;;;;;5033499;28;20023;-88
2022/10/04 14:34:15;;;;;;;;;;;17.30;99.90;;;;;;5033477;28;19920;-88
2022/10/04 14:36:49;;;;;;;;;;;17.30;99.90;;;;;;5036519;28;19921;-90
2022/10/04 14:39:33;;;;;;;;;;;17.40;99.90;;;;;;5036640;28;20012;-89
2022/10/04 14:42:02;;;;;;;;;;;17.50;99.90;;;;;;5036010;28;20312;-88
2022/10/04 14:44:47;;;;;;;;;;;17.60;99.90;;;;;;5035770;28;19921;-88
2022/10/04 14:47:37;;;;;;;;;;;17.60;99.90;;;;;;5036983;28;19979;-88
2022/10/04 14:50:17;;;;;;;;;;;17.60;99.90;;;;;;5036056;28;19921;-88
2022/10/04 14:53:03;;;;;;;;;;;17.50;99.90;;;;;;5069209;28;19927;-87
2022/10/04 14:55:44;;;;;;;;;;;18.00;99.90;;;;;;5019427;28;19928;-88
2022/10/04 14:58:18;;;;;;;;;;;17.40;99.90;;;;;;5052884;28;20012;-89
2022/10/04 15:01:03;;;;;;;;;;;17.40;99.90;;;;;;5036033;28;19948;-88
2022/10/04 15:03:48;;;;;;;;;;;17.40;99.90;;;;;;5134463;22;19935;-85
2022/10/04 15:06:22;;;;;;;;;;;17.40;99.90;;;;;;5079014;28;19924;-87
2022/10/04 15:09:07;;;;;;;;;;;17.30;99.90;;;;;;5079602;28;20393;-87
2022/10/04 15:11:38;;;;;;;;;;;17.20;99.90;;;;;;5072066;28;19936;-86
2022/10/04 15:14:20;;;;;;;;;;;17.10;99.90;;;;;;5093258;28;19925;-89
2022/10/04 15:16:53;;;;;;;;;;;17.00;99.90;;;;;;5096203;28;19928;-89
2022/10/04 15:19:24;;;;;;;;;;;16.80;99.90;;;;;;5080362;28;19925;-89
2022/10/04 15:21:59;;;;;;;;;;;16.70;99.90;;;;;;5081148;28;19924;-88
2022/10/04 15:24:27;;;;;;;;;;;16.60;99.90;;;;;;5121918;28;19925;-89
2022/10/04 15:26:52;;;;;;;;;;;16.50;99.90;;;;;;5055456;28;19916;-91
2022/10/04 15:29:24;;;;;;;;;;;16.50;99.90;;;;;;5088305;28;19928;-90
2022/10/04 15:32:16;;;;;;;;;;;16.40;99.90;;;;;;5103615;28;19924;-88
2022/10/04 15:34:43;;;;;;;;;;;16.40;99.90;;;;;;5061853;28;19925;-90
2022/10/04 15:37:26;;;;;;;;;;;16.30;99.90;;;;;;5101784;28;19956;-89